Time;durP1;ratioP1;P1;durP2;ratioP2;P2;SDS_P1;SDS_P2;PMS_P1;PMS_P2;Temp;Humidity;BMP_temperature;BMP_pressure;BME280_temperature;BME280_humidity;BME280_pressure;Samples;Min_cycle;Max_cycle;Signal;HPM_P1;HPM_P2
2022/05/18 00:02:07;;;;;;;16.42;5.40;;;;;;;17.01;64.17;101762.66;6233487;23;20000;-80
2022/05/18 00:04:33;;;;;;;19.98;4.82;;;;;;;16.98;64.41;101766.44;6234900;23;20004;-81
2022/05/18 00:06:58;;;;;;;16.77;4.72;;;;;;;16.95;64.68;101771.25;6234859;23;20040;-81
2022/05/18 00:09:23;;;;;;;14.67;4.43;;;;;;;16.93;64.76;101771.38;6234466;23;20009;-81
2022/05/18 00:11:49;;;;;;;12.57;4.47;;;;;;;16.86;65.24;101769.38;6233129;23;20243;-80
2022/05/18 00:14:14;;;;;;;13.20;4.18;;;;;;;16.85;64.85;101773.88;6233838;23;20013;-81
2022/05/18 00:16:40;;;;;;;18.77;5.00;;;;;;;16.79;65.41;101777.94;6235101;23;20054;-81
2022/05/18 00:19:05;;;;;;;10.48;4.80;;;;;;;16.76;65.77;101774.69;6235232;23;20056;-81
2022/05/18 00:21:31;;;;;;;11.80;4.75;;;;;;;16.72;64.89;101776.78;6235880;23;20009;-81
2022/05/18 00:23:58;;;;;;;9.95;4.68;;;;;;;16.71;65.84;101775.09;6236336;23;20004;-81
2022/05/18 00:26:24;;;;;;;12.85;4.43;;;;;;;16.70;65.61;101767.16;6236681;23;20024;-80
2022/05/18 00:28:50;;;;;;;13.90;4.72;;;;;;;16.65;65.89;101773.81;6235506;23;20064;-80
2022/05/18 00:31:17;;;;;;;13.52;5.40;;;;;;;16.62;66.29;101775.88;6239513;23;20008;-80
2022/05/18 00:33:42;;;;;;;11.48;5.30;;;;;;;16.62;66.04;101779.44;6239694;23;20008;-81
2022/05/18 00:36:08;;;;;;;8.52;4.50;;;;;;;16.58;66.33;101782.50;6206959;23;20000;-81
2022/05/18 00:38:33;;;;;;;14.00;5.60;;;;;;;16.58;66.44;101779.81;6234678;23;20013;-81
2022/05/18 00:40:58;;;;;;;13.23;4.93;;;;;;;16.57;66.15;101773.63;6236887;23;20001;-81
2022/05/18 00:43:29;;;;;;;12.75;5.40;;;;;;;16.55;65.88;101778.25;6236597;23;20012;-81
2022/05/18 00:45:59;;;;;;;11.35;4.82;;;;;;;16.55;66.44;101782.78;6236474;23;20007;-81
2022/05/18 00:48:24;;;;;;;13.73;5.53;;;;;;;16.53;66.31;101782.06;6236220;23;20040;-81
2022/05/18 00:50:51;;;;;;;12.00;5.82;;;;;;;16.51;66.29;101771.47;6236614;23;20024;-81
2022/05/18 00:53:21;;;;;;;15.18;5.40;;;;;;;16.46;66.77;101782.59;6236277;23;20011;-81
2022/05/18 00:55:53;;;;;;;15.82;5.40;;;;;;;16.42;66.92;101778.50;6237326;23;20004;-81
2022/05/18 00:58:18;;;;;;;18.17;5.32;;;;;;;16.38;67.50;101770.84;6237599;23;20063;-81
2022/05/18 01:00:45;;;;;;;20.47;5.70;;;;;;;16.34;67.72;101772.09;6237511;23;19996;-80
2022/05/18 01:03:25;;;;;;;14.55;5.55;;;;;;;16.31;67.20;101775.03;6237069;23;20008;-80
2022/05/18 01:06:03;;;;;;;11.82;4.95;;;;;;;16.28;67.21;101778.81;6235725;23;20012;-80
2022/05/18 01:08:35;;;;;;;11.88;4.60;;;;;;;16.23;68.05;101779.22;6235321;23;20315;-81
2022/05/18 01:11:00;;;;;;;10.63;4.80;;;;;;;16.21;68.12;101783.03;6235513;23;20008;-81
2022/05/18 01:13:26;;;;;;;13.93;5.38;;;;;;;16.19;68.26;101782.31;6209904;23;20007;-81
2022/05/18 01:15:51;;;;;;;13.15;5.35;;;;;;;16.13;68.46;101778.31;6235318;23;20020;-81
2022/05/18 01:18:17;;;;;;;10.95;4.57;;;;;;;16.12;68.55;101779.31;6234122;23;20001;-81
2022/05/18 01:20:44;;;;;;;11.95;4.70;;;;;;;16.09;68.56;101779.56;6235594;23;20035;-80
2022/05/18 01:23:26;;;;;;;11.40;4.70;;;;;;;16.11;68.50;101779.44;6237415;23;20035;-81
2022/05/18 01:26:06;;;;;;;11.02;4.38;;;;;;;16.06;68.68;101775.28;6238840;23;20054;-81
2022/05/18 01:28:42;;;;;;;14.13;4.88;;;;;;;16.04;68.68;101782.63;6237803;23;20028;-81
2022/05/18 01:31:07;;;;;;;13.27;4.60;;;;;;;16.00;69.15;101778.50;6236885;23;20007;-81
2022/05/18 01:33:34;;;;;;;14.00;5.05;;;;;;;15.99;69.57;101782.16;6236803;23;20005;-81
2022/05/18 01:36:00;;;;;;;17.48;5.10;;;;;;;15.96;69.74;101781.59;6237602;23;20008;-81
2022/05/18 01:38:26;;;;;;;9.60;4.80;;;;;;;15.93;69.63;101777.31;6238292;23;20008;-80
2022/05/18 01:41:02;;;;;;;11.38;4.82;;;;;;;15.94;69.43;101784.38;6238476;23;20015;-81
2022/05/18 01:43:35;;;;;;;10.77;5.57;;;;;;;15.94;69.40;101784.38;6237544;23;20032;-80
2022/05/18 01:46:03;;;;;;;16.73;4.93;;;;;;;15.91;69.22;101781.97;6238516;23;20028;-81
2022/05/18 01:48:34;;;;;;;13.23;4.78;;;;;;;15.92;69.32;101778.31;6238588;23;20020;-81
2022/05/18 01:51:01;;;;;;;17.00;5.03;;;;;;;15.88;69.28;101779.53;6237565;23;20053;-81
2022/05/18 01:53:28;;;;;;;13.50;4.93;;;;;;;15.90;69.17;101781.13;6237019;23;20000;-81
2022/05/18 01:55:54;;;;;;;16.10;5.30;;;;;;;15.90;68.88;101778.44;6239694;23;20007;-81
2022/05/18 01:58:20;;;;;;;11.57;5.05;;;;;;;15.88;70.07;101779.53;6234853;23;20004;-81
2022/05/18 02:00:46;;;;;;;16.30;5.07;;;;;;;15.87;69.82;101776.03;6235531;23;20012;-81
2022/05/18 02:03:12;;;;;;;12.95;4.60;;;;;;;15.87;70.11;101780.50;6235722;23;20006;-80
2022/05/18 02:05:39;;;;;;;11.57;5.07;;;;;;;15.83;70.06;101776.41;6235982;23;20031;-80
2022/05/18 02:08:04;;;;;;;12.48;5.30;;;;;;;15.84;70.50;101773.59;6235750;23;20008;-80
2022/05/18 02:10:30;;;;;;;16.10;5.03;;;;;;;15.84;70.50;101776.28;6236166;23;20009;-81
2022/05/18 02:12:55;;;;;;;12.82;5.63;;;;;;;15.84;70.48;101776.28;6236835;23;20123;-80
2022/05/18 02:15:23;;;;;;;18.55;5.22;;;;;;;15.83;70.51;101779.06;6206998;23;20001;-80
2022/05/18 02:17:49;;;;;;;17.63;5.30;;;;;;;15.82;70.79;101772.88;6207042;23;20005;-80
2022/05/18 02:20:15;;;;;;;14.13;5.43;;;;;;;15.75;71.59;101774.31;6231318;23;20020;-80
2022/05/18 02:22:41;;;;;;;10.05;4.95;;;;;;;15.77;71.35;101775.09;6232451;23;20005;-80
2022/05/18 02:25:06;;;;;;;13.82;4.82;;;;;;;15.73;71.77;101770.94;6202677;23;20011;-80
2022/05/18 02:27:32;;;;;;;15.43;5.30;;;;;;;15.69;71.72;101773.03;6233218;23;20401;-81
2022/05/18 02:29:57;;;;;;;13.57;5.23;;;;;;;15.71;72.15;101763.03;6234074;23;20056;-80
2022/05/18 02:32:23;;;;;;;14.27;5.07;;;;;;;15.73;71.96;101765.56;6235488;23;20240;-80
2022/05/18 02:34:50;;;;;;;9.70;4.75;;;;;;;15.68;72.22;101768.63;6235343;23;20008;-80
2022/05/18 02:37:16;;;;;;;9.75;5.15;;;;;;;15.72;72.42;101769.22;6234731;23;20024;-80
2022/05/18 02:39:41;;;;;;;10.15;5.10;;;;;;;15.68;73.14;101775.81;6233992;23;20016;-80
2022/05/18 02:42:06;;;;;;;13.97;5.67;;;;;;;15.71;72.33;101771.06;6235687;23;20001;-81
2022/05/18 02:44:32;;;;;;;10.45;5.72;;;;;;;15.69;72.54;101781.06;6239187;23;20240;-81
2022/05/18 02:46:59;;;;;;;9.80;5.53;;;;;;;15.71;72.31;101775.56;6238539;23;20060;-81
2022/05/18 02:49:25;;;;;;;12.27;5.80;;;;;;;15.71;72.40;101773.72;6238098;23;20307;-81
2022/05/18 02:51:51;;;;;;;10.55;5.95;;;;;;;15.70;72.91;101776.53;6237335;23;20005;-81
2022/05/18 02:57:00;;;;;;;8.63;5.82;;;;;;;15.69;73.04;101778.38;6236241;23;20020;-81
2022/05/18 02:59:26;;;;;;;12.05;5.38;;;;;;;15.71;72.82;101773.72;6234932;23;20009;-81
2022/05/18 03:01:52;;;;;;;10.63;6.65;;;;;;;15.70;73.20;101776.53;6237389;23;20008;-81
2022/05/18 03:04:18;;;;;;;13.52;6.68;;;;;;;15.70;73.70;101787.25;6243040;23;19988;-81
2022/05/18 03:06:44;;;;;;;12.88;7.40;;;;;;;15.69;73.64;101780.22;6218729;23;19997;-81
2022/05/18 03:09:09;;;;;;;10.75;6.78;;;;;;;15.71;73.08;101783.59;6239117;23;20005;-81
2022/05/18 03:11:35;;;;;;;13.63;7.40;;;;;;;15.71;73.05;101784.44;6232507;23;20338;-81
2022/05/18 03:14:00;;;;;;;13.18;7.13;;;;;;;15.71;72.84;101778.25;6232173;23;20004;-81
2022/05/18 03:16:27;;;;;;;9.23;7.07;;;;;;;15.70;73.03;101788.13;6234258;23;20005;-81
2022/05/18 03:18:53;;;;;;;12.20;6.90;;;;;;;15.72;73.18;101790.66;6207527;23;20016;-81
2022/05/18 03:24:03;;;;;;;10.85;7.03;;;;;;;15.72;72.64;101799.56;6235000;23;20024;-81
2022/05/18 03:26:29;;;;;;;14.65;7.85;;;;;;;15.73;73.01;101801.22;6234264;23;20430;-81
2022/05/18 03:28:56;;;;;;;10.50;8.10;;;;;;;15.77;74.04;101804.56;6233325;23;20012;-82
2022/05/18 03:31:22;;;;;;;13.55;7.53;;;;;;;15.77;73.75;101804.56;6234677;23;20004;-81
2022/05/18 03:33:48;;;;;;;13.18;8.18;;;;;;;15.80;74.30;101806.13;6234116;23;20005;-81
2022/05/18 03:36:15;;;;;;;14.07;7.75;;;;;;;15.80;73.76;101806.97;6235355;23;20009;-81
2022/05/18 03:38:43;;;;;;;11.05;7.70;;;;;;;15.80;73.39;101806.97;6235554;23;20000;-81
2022/05/18 03:41:08;;;;;;;15.98;7.72;;;;;;;15.83;73.97;101797.81;6235992;23;20123;-81
2022/05/18 03:43:34;;;;;;;15.68;7.85;;;;;;;15.83;73.83;101809.38;6235881;23;20000;-81
2022/05/18 03:45:59;;;;;;;17.05;8.23;;;;;;;15.83;74.15;101825.47;6240141;23;20004;-81
2022/05/18 03:48:25;;;;;;;11.93;7.43;;;;;;;15.85;73.87;101817.28;6239911;23;20032;-81
2022/05/18 03:50:53;;;;;;;9.07;7.13;;;;;;;15.85;73.90;101819.97;6233443;23;20005;-81
2022/05/18 03:53:18;;;;;;;12.38;7.25;;;;;;;15.85;73.84;101820.84;6232808;23;20005;-81
2022/05/18 03:55:44;;;;;;;12.50;8.23;;;;;;;15.87;74.53;101812.66;6233644;23;20011;-81
2022/05/18 03:58:10;;;;;;;12.43;7.18;;;;;;;15.90;74.57;101817.75;6232328;23;20078;-81
2022/05/18 04:00:37;;;;;;;12.98;7.15;;;;;;;15.89;74.42;101818.75;6232161;23;20417;-81
2022/05/18 04:03:03;;;;;;;10.00;6.82;;;;;;;15.92;74.44;101815.81;6203958;23;20009;-82
2022/05/18 04:05:30;;;;;;;14.73;7.75;;;;;;;15.95;74.10;101807.50;6229520;23;20028;-81
2022/05/18 04:07:55;;;;;;;8.68;6.88;;;;;;;15.98;74.46;101809.94;6231531;23;20004;-81
2022/05/18 04:10:21;;;;;;;9.65;6.82;;;;;;;16.03;74.00;101805.03;6233327;23;20001;-81
2022/05/18 04:12:46;;;;;;;11.07;6.13;;;;;;;16.08;73.80;101810.84;6235112;23;20016;-81
2022/05/18 04:15:16;;;;;;;9.73;6.27;;;;;;;16.12;73.50;101811.47;6233777;23;20008;-81
2022/05/18 04:17:46;;;;;;;9.32;6.05;;;;;;;16.20;73.35;101813.47;6205066;23;20901;-81
2022/05/18 04:20:19;;;;;;;9.30;6.10;;;;;;;16.23;72.76;101813.22;6232081;23;20000;-81
2022/05/18 04:22:45;;;;;;;10.75;5.72;;;;;;;16.25;73.23;101819.28;6232092;23;20060;-81
2022/05/18 04:25:13;;;;;;;10.30;6.28;;;;;;;16.30;72.74;101822.41;6232609;23;20001;-81
2022/05/18 04:27:39;;;;;;;9.48;6.18;;;;;;;16.38;72.50;101819.94;6231419;23;20057;-81
2022/05/18 04:30:05;;;;;;;9.02;5.65;;;;;;;16.46;72.38;101817.44;6232556;23;20008;-82
2022/05/18 04:32:31;;;;;;;6.50;5.80;;;;;;;16.53;72.21;101814.25;6232683;23;20036;-81
2022/05/18 04:34:56;;;;;;;11.68;5.63;;;;;;;16.58;72.38;101823.56;6206718;23;20008;-81
2022/05/18 04:37:21;;;;;;;9.48;5.72;;;;;;;16.65;71.99;101826.56;6232656;23;20029;-82
2022/05/18 04:39:47;;;;;;;10.80;5.60;;;;;;;16.69;72.02;101829.88;6232879;23;20031;-81
2022/05/18 04:42:13;;;;;;;8.23;5.40;;;;;;;16.74;71.79;101841.88;6208416;23;20248;-81
2022/05/18 04:44:39;;;;;;;10.05;5.25;;;;;;;16.78;71.50;101835.25;6235365;23;20012;-81
2022/05/18 04:47:05;;;;;;;12.25;5.28;;;;;;;16.83;71.68;101846.44;6235413;23;19996;-81
2022/05/18 04:49:32;;;;;;;7.00;4.93;;;;;;;16.89;71.41;101841.56;6235191;23;20013;-81
2022/05/18 04:51:58;;;;;;;7.15;5.30;;;;;;;16.93;71.40;101840.31;6234571;23;20060;-81
2022/05/18 04:54:23;;;;;;;6.53;4.78;;;;;;;16.97;71.08;101847.97;6234503;23;20005;-81
2022/05/18 04:56:48;;;;;;;10.10;5.30;;;;;;;17.04;70.32;101842.91;6233341;23;20398;-81
2022/05/18 04:59:14;;;;;;;6.82;4.43;;;;;;;17.10;70.57;101841.50;6235532;23;20240;-81
2022/05/18 05:01:39;;;;;;;8.68;4.57;;;;;;;17.16;70.02;101849.00;6234244;23;20004;-82
2022/05/18 05:04:09;;;;;;;11.35;5.20;;;;;;;17.23;70.17;101852.00;6234516;23;20031;-82
2022/05/18 05:06:35;;;;;;;5.85;4.57;;;;;;;17.31;69.63;101854.84;6236838;23;20003;-82
2022/05/18 05:09:00;;;;;;;12.05;5.03;;;;;;;17.41;69.17;101860.25;6235218;23;20000;-81
2022/05/18 05:11:26;;;;;;;11.02;5.03;;;;;;;17.49;69.11;101863.94;6237572;23;20014;-81
2022/05/18 05:13:51;;;;;;;7.90;4.82;;;;;;;17.59;68.35;101858.59;6238323;23;20015;-81
2022/05/18 05:16:16;;;;;;;8.95;4.70;;;;;;;17.70;68.40;101862.97;6237356;23;20052;-81
2022/05/18 05:18:42;;;;;;;8.55;4.78;;;;;;;17.85;68.95;101868.78;6237255;23;20008;-82
2022/05/18 05:21:07;;;;;;;8.77;4.90;;;;;;;17.94;68.10;101871.53;6236933;23;20007;-82
2022/05/18 05:23:32;;;;;;;7.97;4.63;;;;;;;18.06;68.01;101868.72;6238952;23;20012;-82
2022/05/18 05:25:59;;;;;;;6.95;4.45;;;;;;;18.15;67.15;101872.38;6239663;23;20345;-81
2022/05/18 05:28:25;;;;;;;12.23;4.55;;;;;;;18.25;67.23;101874.09;6239115;23;20055;-81
2022/05/18 05:30:51;;;;;;;5.63;4.30;;;;;;;18.45;66.58;101869.53;6237566;23;20039;-82
2022/05/18 05:33:16;;;;;;;10.10;4.63;;;;;;;18.57;65.46;101872.91;6223215;23;20008;-82
2022/05/18 05:35:42;;;;;;;7.43;4.68;;;;;;;18.66;65.79;101877.38;6210938;23;20024;-80
2022/05/18 05:38:09;;;;;;;11.38;4.72;;;;;;;18.78;65.90;101882.59;6237787;23;20009;-80
2022/05/18 05:40:35;;;;;;;8.45;4.63;;;;;;;18.84;65.59;101879.38;6239510;23;20007;-80
2022/05/18 05:43:08;;;;;;;6.03;4.38;;;;;;;18.98;65.39;101880.72;6239146;23;20008;-80
2022/05/18 05:45:33;;;;;;;5.18;4.20;;;;;;;19.23;65.15;101876.50;6237233;23;20008;-80
2022/05/18 05:47:58;;;;;;;7.07;3.95;;;;;;;19.45;63.82;101879.81;6208626;23;20047;-82
2022/05/18 05:50:25;;;;;;;11.13;4.20;;;;;;;19.59;64.74;101890.09;6233309;23;20024;-82
2022/05/18 05:52:51;;;;;;;7.57;4.00;;;;;;;19.76;64.05;101900.06;6235278;23;20788;-81
2022/05/18 05:55:17;;;;;;;9.25;4.30;;;;;;;19.98;63.10;101905.16;6211730;23;20001;-81
2022/05/18 05:57:42;;;;;;;7.22;4.13;;;;;;;20.21;61.96;101905.56;6237156;23;20004;-81
2022/05/18 06:00:08;;;;;;;9.97;4.47;;;;;;;20.47;61.56;101905.59;6213053;23;20012;-81
2022/05/18 06:02:34;;;;;;;11.18;4.55;;;;;;;20.59;59.89;101901.63;6241957;23;20335;-81
2022/05/18 06:04:59;;;;;;;12.88;4.28;;;;;;;20.67;60.24;101917.94;6234731;23;20000;-81
2022/05/18 06:07:24;;;;;;;9.57;4.68;;;;;;;20.67;60.47;101901.72;6216963;23;20015;-81
2022/05/18 06:09:50;;;;;;;7.03;3.85;;;;;;;20.71;60.67;101907.66;6220543;23;20004;-81
2022/05/18 06:12:15;;;;;;;9.63;4.00;;;;;;;20.72;59.63;101906.66;6219992;23;20014;-81
2022/05/18 06:14:44;;;;;;;7.82;3.83;;;;;;;20.76;60.24;101907.19;6234576;23;20047;-80
2022/05/18 06:17:10;;;;;;;9.35;4.10;;;;;;;20.76;59.99;101916.13;6193278;23;20449;-82
2022/05/18 06:19:35;;;;;;;11.98;3.88;;;;;;;20.75;59.45;101921.69;6219872;23;20005;-81
2022/05/18 06:22:01;;;;;;;9.07;4.13;;;;;;;20.75;59.25;101932.47;6220833;23;20035;-81
2022/05/18 06:24:26;;;;;;;12.38;4.00;;;;;;;20.79;59.49;101937.41;6218899;23;20345;-81
2022/05/18 06:26:55;;;;;;;10.63;4.32;;;;;;;20.79;59.56;101940.09;6220767;23;20017;-82
2022/05/18 06:29:21;;;;;;;11.65;4.65;;;;;;;20.81;59.14;101931.84;6222484;23;20039;-81
2022/05/18 06:31:47;;;;;;;13.23;4.00;;;;;;;20.82;60.00;101934.41;6227335;23;20100;-81
2022/05/18 06:34:12;;;;;;;7.70;4.03;;;;;;;20.80;58.74;101936.41;6227111;23;20334;-81
2022/05/18 06:36:37;;;;;;;15.13;4.47;;;;;;;20.86;59.07;101933.06;6239735;23;20290;-82
2022/05/18 06:39:04;;;;;;;10.10;4.65;;;;;;;20.86;58.70;101938.47;6240341;23;20240;-83
2022/05/18 06:41:39;;;;;;;8.45;4.30;;;;;;;20.89;59.16;101946.25;6241163;23;20035;-83
2022/05/18 06:44:05;;;;;;;10.30;4.22;;;;;;;20.84;58.52;101943.19;6242332;23;20023;-83
2022/05/18 06:46:35;;;;;;;17.50;4.93;;;;;;;20.87;58.15;101952.84;6242979;23;19998;-83
2022/05/18 06:49:04;;;;;;;16.48;5.22;;;;;;;20.89;58.48;101950.81;6237302;23;19993;-83
2022/05/18 06:51:31;;;;;;;;;;;;;;;21.04;58.80;101953.78;6217942;23;20009;-83
2022/05/18 06:53:57;;;;;;;12.95;4.90;;;;;;;21.00;58.24;101947.84;6242395;23;19896;-83
2022/05/18 06:56:26;;;;;;;13.45;4.68;;;;;;;21.00;57.82;101950.56;6244196;23;20005;-82
2022/05/18 06:58:53;;;;;;;12.77;5.80;;;;;;;21.07;57.52;101959.69;6239817;23;20008;-81
2022/05/18 07:01:23;;;;;;;11.00;4.90;;;;;;;21.10;57.18;101954.97;6238044;23;20016;-82
2022/05/18 07:03:49;;;;;;;8.80;5.72;;;;;;;21.14;57.39;101969.88;6236971;23;20012;-81
2022/05/18 07:06:18;;;;;;;8.82;5.50;;;;;;;21.18;57.68;101969.41;6238794;23;19996;-81
2022/05/18 07:08:43;;;;;;;13.82;6.38;;;;;;;21.33;57.78;101975.03;6211632;23;20009;-80
2022/05/18 07:11:08;;;;;;;8.70;6.57;;;;;;;21.49;57.62;101976.19;6234054;23;20008;-82
2022/05/18 07:13:35;;;;;;;13.57;7.05;;;;;;;21.72;57.00;101979.97;6214350;23;20004;-81
2022/05/18 07:16:02;;;;;;;11.15;6.97;;;;;;;21.78;56.59;101973.06;6241260;23;20016;-82
2022/05/18 07:18:30;;;;;;;15.65;7.93;;;;;;;21.82;57.19;101971.75;6235827;23;19989;-80
2022/05/18 07:21:00;;;;;;;15.10;7.55;;;;;;;21.84;57.10;101972.41;6238842;23;20007;-80
2022/05/18 07:23:26;;;;;;;12.77;7.90;;;;;;;21.92;57.51;101975.16;6236205;23;20004;-81
2022/05/18 07:25:54;;;;;;;11.85;8.13;;;;;;;21.89;57.20;101983.59;6239648;23;20016;-81
2022/05/18 07:28:20;;;;;;;12.07;7.07;;;;;;;21.99;57.85;101983.44;6215790;23;20028;-82
2022/05/18 07:30:46;;;;;;;13.82;7.35;;;;;;;21.98;57.56;101988.03;6242623;23;20003;-83
2022/05/18 07:33:11;;;;;;;12.82;7.35;;;;;;;21.99;57.47;101976.16;6242776;23;20021;-82
2022/05/18 07:35:36;;;;;;;10.82;7.05;;;;;;;22.04;58.21;101974.84;6241764;23;20036;-83
2022/05/18 07:38:02;;;;;;;15.30;6.93;;;;;;;22.17;57.17;101980.63;6243872;23;20013;-83
2022/05/18 07:40:28;;;;;;;11.85;7.63;;;;;;;22.11;56.87;101979.41;6243886;23;20228;-83
2022/05/18 07:42:56;;;;;;;12.95;7.68;;;;;;;22.15;57.59;101975.38;6217961;23;20008;-83
2022/05/18 07:45:22;;;;;;;11.83;7.73;;;;;;;22.28;57.70;101977.63;6243609;23;19992;-83
2022/05/18 07:47:49;;;;;;;12.32;7.95;;;;;;;22.47;57.13;101983.72;6240867;23;20009;-83
2022/05/18 07:50:16;;;;;;;12.05;6.65;;;;;;;22.75;57.00;101986.06;6233280;23;20020;-83
2022/05/18 07:52:43;;;;;;;13.98;7.70;;;;;;;23.15;56.50;101987.94;6234968;23;20056;-82
2022/05/18 07:55:08;;;;;;;9.68;7.05;;;;;;;23.52;55.24;101991.03;6236695;23;19992;-82
2022/05/18 07:57:34;;;;;;;9.55;6.93;;;;;;;23.73;54.90;101993.13;6238173;23;19991;-82
2022/05/18 07:59:59;;;;;;;11.13;6.53;;;;;;;23.97;54.09;101992.22;6241231;23;20039;-83
2022/05/18 08:02:26;;;;;;;8.90;7.05;;;;;;;24.30;52.75;101992.00;6241805;23;20044;-82
2022/05/18 08:04:52;;;;;;;11.25;7.13;;;;;;;24.52;51.94;101996.56;6241979;23;20056;-82
2022/05/18 08:07:17;;;;;;;15.93;7.53;;;;;;;24.57;52.39;102004.22;6240229;23;19988;-82
2022/05/18 08:15:11;;;;;;;13.25;7.30;;;;;;;24.96;51.42;101999.63;6242497;23;20031;-82
2022/05/18 08:17:36;;;;;;;10.63;7.47;;;;;;;25.24;52.15;101991.69;6216654;23;20023;-82
2022/05/18 08:20:07;;;;;;;12.23;7.55;;;;;;;25.56;50.24;101992.34;6242185;23;20013;-82
2022/05/18 08:22:32;;;;;;;12.57;7.97;;;;;;;25.81;48.73;101984.72;6216438;23;20060;-83
2022/05/18 08:24:57;;;;;;;10.60;7.38;;;;;;;26.11;48.86;101995.56;6237847;23;20013;-82
2022/05/18 08:27:23;;;;;;;13.43;7.63;;;;;;;26.38;48.57;101993.97;6243408;23;20003;-84
2022/05/18 08:29:48;;;;;;;13.53;7.40;;;;;;;26.77;47.87;101993.47;6243694;23;20236;-83
2022/05/18 08:32:13;;;;;;;12.40;6.78;;;;;;;27.15;47.59;101992.28;6244873;23;20249;-83
2022/05/18 08:34:39;;;;;;;9.37;5.87;;;;;;;27.43;46.93;101999.59;6244943;23;20023;-83
2022/05/18 08:37:04;;;;;;;12.27;6.70;;;;;;;27.56;44.83;102001.56;6244936;23;20263;-83
2022/05/18 08:39:29;;;;;;;9.85;6.20;;;;;;;27.89;44.98;102004.44;6244918;23;20267;-83
2022/05/18 08:41:58;;;;;;;10.60;6.13;;;;;;;28.20;45.09;102006.66;6244853;23;20040;-84
2022/05/18 08:44:28;;;;;;;11.27;6.95;;;;;;;28.51;43.59;102001.66;6241240;23;20262;-83
2022/05/18 08:47:21;;;;;;;11.05;6.03;;;;;;;28.58;44.52;102005.28;6211878;23;20073;-83
2022/05/18 08:50:00;;;;;;;8.75;5.30;;;;;;;28.88;43.31;102008.41;6240690;23;20004;-83
2022/05/18 08:52:54;;;;;;;12.93;7.00;;;;;;;28.74;43.29;102002.09;6238178;23;20012;-83
2022/05/18 08:55:45;;;;;;;9.85;6.43;;;;;;;28.85;43.69;102008.84;6239228;23;19997;-83
2022/05/18 08:58:28;;;;;;;11.82;6.70;;;;;;;29.16;42.90;102008.16;6237290;23;20008;-82
2022/05/18 09:00:59;;;;;;;11.05;5.72;;;;;;;29.42;41.57;102006.44;6239308;23;20004;-81
2022/05/18 09:03:38;;;;;;;11.95;6.50;;;;;;;29.47;41.54;102003.06;6236770;23;20003;-80
2022/05/18 09:06:36;;;;;;;9.05;5.55;;;;;;;29.80;42.05;102005.69;6245145;23;19999;-80
2022/05/18 09:11:46;;;;;;;8.90;5.47;;;;;;;30.16;38.25;102008.88;6245480;23;19903;-81
2022/05/18 09:14:17;;;;;;;8.02;4.63;;;;;;;30.37;38.00;102003.06;6245410;23;20037;-81
2022/05/18 09:16:53;;;;;;;7.80;4.63;;;;;;;30.44;38.24;102001.13;6245303;23;20020;-81
2022/05/18 09:19:57;;;;;;;8.85;4.10;;;;;;;30.73;38.54;102004.25;6244803;23;19993;-82
2022/05/18 09:22:47;;;;;;;4.68;3.17;;;;;;;30.90;37.28;102000.94;6213481;23;20031;-82
2022/05/18 09:25:46;;;;;;;4.97;3.60;;;;;;;31.27;38.75;101999.09;6244075;23;20000;-81
2022/05/18 09:28:46;;;;;;;10.15;4.60;;;;;;;31.30;37.68;102000.56;6244330;23;20076;-80
2022/05/18 09:31:49;;;;;;;8.50;4.13;;;;;;;31.42;37.64;102006.13;6244858;23;20008;-79
2022/05/18 09:34:48;;;;;;;6.00;3.00;;;;;;;31.59;37.27;102007.19;6238991;23;20031;-79
2022/05/18 09:37:33;;;;;;;6.18;2.95;;;;;;;31.55;36.16;102011.50;6236680;23;20009;-79
2022/05/18 09:40:02;;;;;;;7.93;4.00;;;;;;;31.45;34.95;102001.00;6232980;23;20060;-78
2022/05/18 09:42:34;;;;;;;13.80;4.03;;;;;;;31.29;36.05;102002.47;6224548;23;20000;-79
2022/05/18 09:45:08;;;;;;;6.57;3.58;;;;;;;31.57;35.87;102003.84;6223270;23;20012;-79
2022/05/18 09:47:45;;;;;;;9.75;3.55;;;;;;;31.70;36.72;102000.09;6227015;23;20009;-78
2022/05/18 09:50:11;;;;;;;5.35;2.60;;;;;;;31.74;35.34;102004.06;6224035;23;20035;-78
2022/05/18 09:52:39;;;;;;;4.65;2.58;;;;;;;31.88;35.19;102000.06;6222508;23;20005;-78
2022/05/18 09:55:07;;;;;;;;;;;;;;;32.41;37.41;102003.13;6228762;23;20015;-78
2022/05/18 09:57:37;;;;;;;6.90;2.20;;;;;;;32.11;34.52;102001.28;6201457;23;19914;-79
2022/05/18 10:00:12;;;;;;;7.95;2.10;;;;;;;32.32;34.25;102004.53;6228945;23;19997;-79
2022/05/18 10:08:19;;;;;;;3.28;1.80;;;;;;;32.67;32.50;102009.31;6229844;23;20019;-79
2022/05/18 10:10:45;;;;;;;6.18;1.85;;;;;;;32.82;31.09;102007.75;6228570;23;20009;-79
2022/05/18 10:13:18;;;;;;;5.18;1.90;;;;;;;32.84;32.79;102007.50;6226881;23;20082;-80
2022/05/18 10:15:47;;;;;;;7.65;2.15;;;;;;;33.03;31.50;102011.00;6233681;23;20008;-79
2022/05/18 10:18:12;;;;;;;4.00;1.63;;;;;;;33.16;30.74;102004.44;6233791;23;20008;-79
2022/05/18 10:20:40;;;;;;;4.78;2.10;;;;;;;33.24;31.28;102001.28;6231255;23;20070;-79
2022/05/18 10:23:45;;;;;;;5.70;2.15;;;;;;;33.42;32.19;101999.47;6200988;23;20043;-79
2022/05/18 10:26:40;;;;;;;4.30;1.70;;;;;;;33.76;31.34;102003.22;6228992;23;20167;-79
2022/05/18 10:29:19;;;;;;;7.47;2.97;;;;;;;33.54;30.86;101997.50;6230005;23;20043;-78
2022/05/18 10:32:05;;;;;;;5.20;2.35;;;;;;;33.76;32.25;102005.97;6237403;23;20009;-78
2022/05/18 10:34:39;;;;;;;4.15;2.28;;;;;;;33.27;30.57;102003.56;6235195;23;20004;-78
2022/05/18 10:37:09;;;;;;;5.00;2.60;;;;;;;33.53;30.38;101990.34;6225153;23;20013;-78
2022/05/18 10:39:46;;;;;;;7.13;2.70;;;;;;;33.67;30.57;101997.22;6225499;23;20012;-78
2022/05/18 10:42:28;;;;;;;5.38;2.53;;;;;;;33.91;31.08;101995.25;6231281;23;20063;-79
2022/05/18 10:44:58;;;;;;;4.22;2.95;;;;;;;34.29;31.26;101990.16;6230679;23;20095;-79
2022/05/18 10:47:35;;;;;;;5.38;2.38;;;;;;;34.37;30.21;101984.22;6202001;23;20022;-79
2022/05/18 10:50:20;;;;;;;4.18;2.55;;;;;;;34.45;30.89;101972.78;6227452;23;20303;-79
2022/05/18 10:52:45;;;;;;;5.05;2.60;;;;;;;34.75;29.52;101970.78;6223301;23;20012;-78
2022/05/18 10:55:22;;;;;;;4.97;2.40;;;;;;;34.42;29.29;101977.97;6223347;23;20304;-79
2022/05/18 10:58:05;;;;;;;5.75;2.47;;;;;;;34.41;29.77;101977.13;6223255;23;20015;-78
2022/05/18 11:00:50;;;;;;;6.35;2.42;;;;;;;34.14;30.25;101979.66;6223908;23;20007;-77
2022/05/18 11:03:22;;;;;;;4.60;2.50;;;;;;;34.26;30.15;101993.44;6219463;23;20098;-77
2022/05/18 11:05:55;;;;;;;7.72;2.38;;;;;;;34.06;29.46;101978.16;6224751;23;20411;-78
2022/05/18 11:08:24;;;;;;;6.25;3.13;;;;;;;33.93;29.95;101982.03;6225052;23;20004;-77
2022/05/18 11:11:16;;;;;;;4.95;2.80;;;;;;;34.33;30.06;101976.72;6219285;23;20023;-78
2022/05/18 11:13:46;;;;;;;6.65;3.10;;;;;;;34.63;30.12;101968.91;6221315;23;20004;-78
2022/05/18 11:16:11;;;;;;;6.57;2.95;;;;;;;34.44;29.22;101973.00;6222425;23;20032;-77
2022/05/18 11:19:07;;;;;;;7.50;2.93;;;;;;;34.52;30.22;101980.06;6228010;23;20059;-78
2022/05/18 11:22:02;;;;;;;5.68;3.00;;;;;;;34.24;30.02;101977.13;6238370;23;20005;-77
2022/05/18 11:24:34;;;;;;;7.63;2.30;;;;;;;34.42;30.42;101970.50;6239062;23;20004;-78
2022/05/18 11:27:06;;;;;;;4.75;2.95;;;;;;;34.33;30.52;101977.53;6217939;23;20005;-78
2022/05/18 11:29:40;;;;;;;6.00;3.05;;;;;;;34.73;30.11;101967.44;6190298;23;20004;-79
2022/05/18 11:32:16;;;;;;;5.97;2.90;;;;;;;34.62;28.70;101958.13;6216619;23;20012;-78
2022/05/18 11:34:57;;;;;;;3.85;2.40;;;;;;;34.69;30.03;101956.06;6217385;23;20005;-78
2022/05/18 11:37:59;;;;;;;7.55;3.10;;;;;;;34.89;29.39;101960.22;6216700;23;20414;-78
2022/05/18 11:40:56;;;;;;;5.40;2.40;;;;;;;35.06;29.36;101958.25;6216585;23;20031;-78
2022/05/18 11:44:00;;;;;;;5.07;2.42;;;;;;;34.90;29.49;101948.09;6216621;23;20001;-79
2022/05/18 11:46:29;;;;;;;5.75;2.30;;;;;;;34.36;29.20;101954.97;6190270;23;20004;-79
2022/05/18 11:49:10;;;;;;;5.70;2.22;;;;;;;34.55;30.27;101944.50;6216746;23;20005;-79
2022/05/18 11:52:06;;;;;;;7.65;2.70;;;;;;;34.46;30.48;101952.38;6217276;23;20062;-78
2022/05/18 11:55:07;;;;;;;5.10;2.33;;;;;;;34.27;30.06;101965.59;6216687;23;20029;-78